Flight Track Log - Related Links

Times and Time Zones

All times are in EDT time to prevent confusion due to time zone crossing. See the FDX1254 flight status page for this flight to view local times or setup timezone preferences in your user account.

Time Position Orientation Groundspeed Altitude Reporting Facility
EDT Latitude Longitude Course Direction KTS MPH feet Rate Location/Type
Thu 08:55:14 PM 41.8250 -71.4810 296° West 261 300 6,000  Level FlightAware ADS-B
Thu 08:55:39 PM 41.8400 -71.5230 296° West 259 298 7,900 4,255 Climbing FlightAware ADS-B
Thu 08:56:09 PM 41.8550 -71.5640 296° West 258 297 9,900 3,600 Climbing FlightAware ADS-B
Thu 08:56:49 PM 41.8760 -71.6240 295° West 276 318 12,100 3,375 Climbing FlightAware ADS-B
Thu 08:57:29 PM 41.8890 -71.6860 286° West 273 314 14,400 3,529 Climbing FlightAware ADS-B
Thu 08:58:14 PM 41.9010 -71.7640 282° West 282 325 17,100 3,600 Climbing FlightAware ADS-B
Thu 08:58:59 PM 41.9190 -71.8460 286° West 292 336 19,800 3,176 Climbing FlightAware ADS-B
Thu 08:59:39 PM 41.9360 -71.9160 288° West 303 349 21,600 2,700 Climbing FlightAware ADS-B
Thu 09:00:19 PM 41.9500 -71.9770 287° West 314 361 23,400 1,765 Climbing FlightAware ADS-B
Thu 09:01:04 PM 41.9820 -72.0790 293° West 320 368 24,100 1,200 Climbing FlightAware ADS-B
Thu 09:02:39 PM 42.0470 -72.2810 293° West 415 478 26,200 1,523 Climbing FlightAware ADS-B
Thu 09:03:14 PM 42.0630 -72.3770 283° West 417 480 27,400 1,500 Climbing FlightAware ADS-B
Thu 09:04:19 PM 42.0910 -72.5520 282° West 432 497 28,700 2,400 Climbing FlightAware ADS-B
Thu 09:04:59 PM 42.1090 -72.6660 282° West 418 481 31,600 3,176 Climbing FlightAware ADS-B
Thu 09:05:44 PM 42.1260 -72.7790 282° West 421 484 33,200 2,612 Climbing FlightAware ADS-B
Thu 09:06:24 PM 42.1410 -72.8820 281° West 401 461 35,300 1,976 Climbing FlightAware ADS-B
Thu 09:07:09 PM 42.1570 -72.9950 281° West 407 468 36,000 494 Climbing FlightAware ADS-B
Thu 09:07:49 PM 42.1720 -73.0930 282° West 413 475 36,000  Level FlightAware ADS-B
Thu 09:08:39 PM 42.1870 -73.2150 279° West 414 476 36,000  Level FlightAware ADS-B
Thu 09:09:24 PM 42.1810 -73.3340 266° West 404 465 36,000 200 Level FlightAware ADS-B
Thu 09:10:09 PM 42.1760 -73.4420 266° West 406 467 36,300 689 Climbing FlightAware ADS-B
Thu 09:10:25 PM 42.1738 -73.4902 266° West 412 474 36,700 1,846 Climbing FlightAware ADS-B
Thu 09:11:01 PM 42.1689 -73.5844 266° West 409 471 37,900 1,083 Climbing FlightAware ADS-B
Thu 09:11:37 PM 42.1641 -73.6714 266° West 401 461 38,000 86 Climbing FlightAware ADS-B
Thu 09:12:11 PM 42.1592 -73.7593 266° West 407 468 38,000  Level FlightAware ADS-B
Thu 09:12:44 PM 42.1546 -73.8407 266° West 412 474 38,000  Level FlightAware ADS-B
Thu 09:13:15 PM 42.1501 -73.9227 266° West 413 475 38,000  Level FlightAware ADS-B
Thu 09:13:50 PM 42.1450 -74.0126 266° West 414 476 38,000  Level FlightAware ADS-B
Thu 09:14:26 PM 42.1398 -74.1052 266° West 415 478 38,000  Level FlightAware ADS-B
Thu 09:15:14 PM 42.1330 -74.2260 266° West 416 479 38,000  Level FlightAware ADS-B
Thu 09:15:42 PM 42.1282 -74.3012 265° West 417 480 38,000  Level FlightAware ADS-B
Thu 09:16:19 PM 42.1224 -74.3974 265° West 419 482 38,000  Level FlightAware ADS-B
Thu 09:16:50 PM 42.1175 -74.4755 265° West 420 483 38,000  Level FlightAware ADS-B
Thu 09:17:20 PM 42.1127 -74.5563 265° West 422 486 38,000  Level FlightAware ADS-B
Thu 09:17:52 PM 42.1075 -74.6376 265° West 424 488 38,000  Level FlightAware ADS-B
Thu 09:18:27 PM 42.1017 -74.7296 265° West 424 488 38,000  Level FlightAware ADS-B
Thu 09:18:57 PM 42.0967 -74.8083 265° West 424 488 38,000  Level FlightAware ADS-B
Thu 09:19:28 PM 42.0914 -74.8922 265° West 423 487 38,000  Level FlightAware ADS-B
Thu 09:19:59 PM 42.0861 -74.9733 265° West 423 487 38,000  Level FlightAware ADS-B
Thu 09:20:38 PM 42.0793 -75.0749 265° West 421 484 38,000  Level FlightAware ADS-B
Thu 09:21:09 PM 42.0740 -75.1556 265° West 419 482 38,000  Level FlightAware ADS-B
Thu 09:21:40 PM 42.0686 -75.2333 265° West 418 481 38,000  Level FlightAware ADS-B
Thu 09:21:56 PM 42.0651 -75.2771 264° West 417 480 38,000  Level FlightAware ADS-B
Thu 09:22:21 PM 42.0518 -75.3388 254° West 414 476 38,000  Level FlightAware ADS-B
Thu 09:22:35 PM 42.0404 -75.3715 245° Southwest 415 478 38,000  Level FlightAware ADS-B
Thu 09:23:09 PM 42.0092 -75.4486 241° Southwest 416 479 38,000  Level FlightAware ADS-B
Thu 09:24:04 PM 41.9610 -75.5640 241° Southwest 412 474 38,000  Level FlightAware ADS-B
Thu 09:24:54 PM 41.9200 -75.6630 241° Southwest 418 481 38,000  Level FlightAware ADS-B
Thu 09:25:25 PM 41.8809 -75.7563 241° Southwest 419 482 38,000  Level FlightAware ADS-B
Thu 09:25:57 PM 41.8511 -75.8286 241° Southwest 418 481 38,000  Level FlightAware ADS-B
Thu 09:26:30 PM 41.8203 -75.9012 240° Southwest 420 483 38,000  Level FlightAware ADS-B
Thu 09:27:01 PM 41.7907 -75.9740 241° Southwest 421 484 38,000  Level FlightAware ADS-B
Thu 09:27:33 PM 41.7603 -76.0446 240° Southwest 422 486 38,000  Level FlightAware ADS-B
Thu 09:28:07 PM 41.7277 -76.1239 241° Southwest 421 484 38,000  Level FlightAware ADS-B
Thu 09:28:39 PM 41.6970 -76.1963 240° Southwest 420 483 38,000  Level FlightAware ADS-B
Thu 09:29:11 PM 41.6662 -76.2686 240° Southwest 419 482 38,000  Level FlightAware ADS-B
Thu 09:29:43 PM 41.6359 -76.3405 241° Southwest 418 481 38,000  Level FlightAware ADS-B
Thu 09:30:16 PM 41.6048 -76.4145 241° Southwest 417 480 38,000  Level FlightAware ADS-B
Thu 09:30:51 PM 41.5718 -76.4904 240° Southwest 416 479 38,000  Level FlightAware ADS-B
Thu 09:31:21 PM 41.5426 -76.5597 241° Southwest 417 480 38,000  Level FlightAware ADS-B
Thu 09:31:53 PM 41.5127 -76.6288 240° Southwest 416 479 38,000  Level FlightAware ADS-B
Thu 09:32:25 PM 41.4821 -76.7021 241° Southwest 416 479 38,000  Level FlightAware ADS-B
Thu 09:32:56 PM 41.4524 -76.7710 240° Southwest 416 479 38,000  Level FlightAware ADS-B
Thu 09:33:27 PM 41.4225 -76.8398 240° Southwest 417 480 38,000  Level FlightAware ADS-B
Thu 09:34:05 PM 41.3858 -76.9245 240° Southwest 417 480 38,000  Level FlightAware ADS-B
Thu 09:34:37 PM 41.3549 -76.9957 240° Southwest 419 482 38,000  Level FlightAware ADS-B
Thu 09:35:14 PM 41.3190 -77.0786 240° Southwest 422 486 38,000  Level FlightAware ADS-B
Thu 09:35:45 PM 41.2891 -77.1481 240° Southwest 422 486 38,000  Level FlightAware ADS-B
Thu 09:36:32 PM 41.2430 -77.2538 240° Southwest 424 488 38,000  Level FlightAware ADS-B
Thu 09:37:29 PM 41.1940 -77.3640 239° Southwest 425 489 38,000  Level FlightAware ADS-B
Thu 09:38:09 PM 41.1520 -77.4610 240° Southwest 425 489 38,000  Level FlightAware ADS-B
Thu 09:38:23 PM 41.1335 -77.5015 239° Southwest 424 488 38,000  Level FlightAware ADS-B
Thu 09:39:34 PM 41.0628 -77.6620 240° Southwest 427 491 38,000  Level FlightAware ADS-B
Thu 09:40:19 PM 41.0230 -77.7540 240° Southwest 428 493 38,000  Level FlightAware ADS-B
Thu 09:40:59 PM 40.9820 -77.8420 238° Southwest 428 493 38,000  Level FlightAware ADS-B
Thu 09:41:44 PM 40.9360 -77.9460 240° Southwest 429 494 38,000  Level FlightAware ADS-B
Thu 09:42:24 PM 40.9150 -78.0450 254° West 418 481 38,000  Level FlightAware ADS-B
Thu 09:43:04 PM 40.9110 -78.1460 267° West 414 476 38,000  Level FlightAware ADS-B
Thu 09:43:49 PM 40.9080 -78.2570 268° West 412 474 38,000  Level FlightAware ADS-B
Thu 09:44:29 PM 40.9040 -78.3570 267° West 410 472 38,000  Level FlightAware ADS-B
Thu 09:45:14 PM 40.9000 -78.4710 267° West 407 468 38,000  Level FlightAware ADS-B
Thu 09:45:54 PM 40.8970 -78.5710 268° West 406 467 38,000  Level FlightAware ADS-B
Thu 09:46:34 PM 40.8930 -78.6650 267° West 405 466 38,000  Level FlightAware ADS-B
Thu 09:47:19 PM 40.8890 -78.7710 267° West 404 465 38,000  Level FlightAware ADS-B
Thu 09:47:59 PM 40.8850 -78.8790 267° West 403 464 38,000  Level FlightAware ADS-B
Thu 09:48:39 PM 40.8810 -78.9770 267° West 402 463 38,000  Level FlightAware ADS-B
Thu 09:49:14 PM 40.8780 -79.0510 267° West 38,000  Level FlightAware ADS-B
Thu 09:49:59 PM 40.8730 -79.1710 267° West 401 461 38,000  Level FlightAware ADS-B
Thu 09:50:49 PM 40.8680 -79.2950 267° West 402 463 38,000  Level FlightAware ADS-B
Thu 09:51:29 PM 40.8640 -79.3880 267° West 402 463 38,000  Level FlightAware ADS-B
Thu 09:52:09 PM 40.8590 -79.4910 266° West 403 464 38,000  Level FlightAware ADS-B
Thu 09:52:54 PM 40.8540 -79.6020 267° West 403 464 38,000  Level FlightAware ADS-B
Thu 09:53:34 PM 40.8500 -79.6900 267° West 401 461 38,000  Level FlightAware ADS-B
Thu 09:54:19 PM 40.8450 -79.8050 267° West 400 460 38,000  Level FlightAware ADS-B
Thu 09:54:59 PM 40.8400 -79.9050 266° West 400 460 38,000  Level FlightAware ADS-B
Thu 09:55:44 PM 40.8350 -80.0100 266° West 401 461 38,000  Level FlightAware ADS-B
Thu 09:56:24 PM 40.8300 -80.1100 266° West 402 463 38,000  Level FlightAware ADS-B
Thu 09:56:59 PM 40.8260 -80.1960 267° West 405 466 38,000  Level FlightAware ADS-B
Thu 09:57:49 PM 40.8310 -80.3320 273° West 406 467 38,000  Level FlightAware ADS-B
Thu 09:58:29 PM 40.8360 -80.4310 274° West 407 468 38,000  Level FlightAware ADS-B
Thu 09:59:09 PM 40.8410 -80.5310 274° West 410 472 38,000  Level FlightAware ADS-B
Thu 09:59:54 PM 40.8470 -80.6440 274° West 412 474 38,000  Level FlightAware ADS-B
Thu 10:00:29 PM 40.8510 -80.7290 274° West 414 476 38,000  Level FlightAware ADS-B
Thu 10:01:19 PM 40.8570 -80.8560 274° West 415 478 38,000  Level FlightAware ADS-B
Thu 10:01:59 PM 40.8620 -80.9590 274° West 416 479 38,000  Level FlightAware ADS-B
Thu 10:02:44 PM 40.8670 -81.0730 273° West 417 480 38,000  Level FlightAware ADS-B
Thu 10:03:24 PM 40.8720 -81.1750 274° West 417 480 38,000  Level FlightAware ADS-B
Thu 10:04:04 PM 40.8760 -81.2790 273° West 417 480 38,000  Level FlightAware ADS-B
Thu 10:04:49 PM 40.8810 -81.3890 273° West 418 481 38,000  Level FlightAware ADS-B
Thu 10:05:24 PM 40.8850 -81.4810 273° West 418 481 38,000  Level FlightAware ADS-B
Thu 10:06:09 PM 40.8900 -81.5930 273° West 419 482 38,000  Level FlightAware ADS-B
Thu 10:06:54 PM 40.8940 -81.7110 273° West 420 483 38,000  Level FlightAware ADS-B
Thu 10:07:34 PM 40.8960 -81.8130 272° West 419 482 38,000  Level FlightAware ADS-B
Thu 10:08:19 PM 40.8980 -81.9250 271° West 416 479 38,000  Level FlightAware ADS-B
Thu 10:08:59 PM 40.9000 -82.0320 271° West 415 478 38,000  Level FlightAware ADS-B
Thu 10:09:44 PM 40.9030 -82.1430 272° West 411 473 38,000  Level FlightAware ADS-B
Thu 10:10:24 PM 40.9050 -82.2420 272° West 406 467 38,000  Level FlightAware ADS-B
Thu 10:11:04 PM 40.9060 -82.3400 271° West 401 461 38,000  Level FlightAware ADS-B
Thu 10:12:04 PM 40.9090 -82.4840 272° West 395 455 38,000  Level FlightAware ADS-B
Thu 10:12:44 PM 40.9140 -82.5840 274° West 393 452 38,000  Level FlightAware ADS-B
Thu 10:13:24 PM 40.9170 -82.6680 273° West 392 451 38,000  Level FlightAware ADS-B
Thu 10:14:09 PM 40.9220 -82.7880 273° West 392 451 38,000  Level FlightAware ADS-B
Thu 10:14:49 PM 40.9250 -82.8810 272° West 392 451 38,000  Level FlightAware ADS-B
Thu 10:15:29 PM 40.9290 -82.9750 273° West 392 451 38,000 -141 Level FlightAware ADS-B
Thu 10:16:14 PM 40.9320 -83.0820 272° West 393 452 37,800 -776 Descending FlightAware ADS-B
Thu 10:16:54 PM 40.9360 -83.1810 273° West 392 451 36,900 -2,118 Descending FlightAware ADS-B
Thu 10:17:39 PM 40.9390 -83.2910 272° West 393 452 34,800 -2,965 Descending FlightAware ADS-B
Thu 10:18:19 PM 40.9420 -83.3820 273° West 397 457 32,700 -2,612 Descending FlightAware ADS-B
Thu 10:19:04 PM 40.9460 -83.4920 273° West 400 460 31,100 -3,035 Descending FlightAware ADS-B
Thu 10:19:44 PM 40.9490 -83.5900 272° West 406 467 28,400 -4,094 Descending FlightAware ADS-B
Thu 10:20:29 PM 40.9520 -83.7070 272° West 417 480 25,300 -3,671 Descending FlightAware ADS-B
Thu 10:21:09 PM 40.9550 -83.8060 272° West 401 461 23,200 -3,150 Descending FlightAware ADS-B
Thu 10:21:49 PM 40.9580 -83.9030 272° West 389 448 21,100 -3,247 Descending FlightAware ADS-B
Thu 10:22:34 PM 40.9610 -84.0060 272° West 378 435 18,600 -3,176 Descending FlightAware ADS-B
Thu 10:23:14 PM 40.9630 -84.0960 272° West 366 421 16,600 -3,375 Descending FlightAware ADS-B
Thu 10:23:54 PM 40.9650 -84.1850 272° West 357 411 14,100 -3,388 Descending FlightAware ADS-B
Thu 10:24:39 PM 40.9670 -84.2840 272° West 351 404 11,800 -2,067 Descending FlightAware ADS-B
Thu 10:25:24 PM 40.9690 -84.3730 272° West 312 359 11,000 -847 Descending FlightAware ADS-B
Thu 10:26:04 PM 40.9700 -84.4450 271° West 274 315 10,600 -300 Descending FlightAware ADS-B
Thu 10:26:44 PM 40.9710 -84.5130 271° West 262 302 10,600 -675 Level FlightAware ADS-B
Thu 10:27:24 PM 40.9760 -84.5720 276° West 251 289 9,700 -1,800 Descending FlightAware ADS-B
Thu 10:27:54 PM 40.9880 -84.6150 290° West 251 289 8,500 -2,100 Descending FlightAware ADS-B
Thu 10:28:24 PM 41.0010 -84.6590 291° West 255 293 7,600 -1,855 Descending FlightAware ADS-B
Thu 10:28:49 PM 41.0120 -84.6940 293° West 261 300 6,800 -1,733 Descending FlightAware ADS-B
Thu 10:29:09 PM 41.0220 -84.7260 293° West 259 298 6,300 -1,304 Descending FlightAware ADS-B
Thu 10:30:21 PM 41.0511 -84.8267 293° West 254 292 4,800 -1,299 Descending Chicago Center
Thu 10:31:23 PM 41.0414 -84.9147 262° West 246 283 3,400 -927 Descending Chicago Center
Thu 10:32:24 PM 41.0403 -84.9897 269° West 226 260 2,900 -537 Descending Chicago Center
Thu 10:33:26 PM 41.0483 -85.0503 280° West 196 226 2,300 -293 Descending Chicago Center
Thu 10:34:27 PM 41.0419 -85.1061 261° West 179 206 2,300 -295 Level Chicago Center
Thu 10:35:28 PM 41.0122 -85.1492 228° Southwest 163 188 1,700 -590 Descending Chicago Center

Login

Don't have an account? Register now (free) for customized features, flight alerts, and more!